aviador You're here:

KDET Decoded Metar

DETROIT in MI, USA
Report Time2017-10-17 19:53:00
UTC Time2017-10-17 20:29:08
Flight Rules vfr VFR
Wind230° at 17 Gusting to 22 kt
W.Decomp.*RWY 25: 16.4 kt HW 4.4 kt LCW
RWY 15: 1.5 kt HW 16.9 kt RCW
W.Rank230° ranks 2
Current wind is above 230° avg. (9.2)
Visibility9999 m
Phenomena:N/A
Clouds:N/A
Expected CloudBase > 6,000 ft AGL from Temp-Dew spread
CeilingNone
Temp20°C (ISA +6)
Dew Point05°C (38% RH)
AAT12.8°C
QNH1020 hPa
Density Alt1,240 ft
Elevation623 ft
Report Wrong Elevation
Raw Report
METAR KDET 171953Z 23017G22KT 10SM CLR 20/05 A3012 RMK AO2 SLP201 T02000050=

Extra information for KDET:More info

Metar Taf Metar & Taf Last 4 Metars F.Rules Stats Wind Profile Meteogram Temp Stats Airport Information Weather charts Add Link Nearby VenuesMetar ALERT Operation Metar Decoded Social comments

AIRNAV info for KDET